Terminal Aerodrome Forecast
Issued by NWS

Home | Current Version | Previous Version | Text Only | Print | Product List | Glossary On
Versions: 1 2 3 4 5 6 7 8 9 10 11 12 13 14 15 16 17
000
FTUS45 KTFX 270500 RRA
TAFGTF
TAF
KGTF 270549Z 2706/2806 21014KT P6SM SCT100 BKN200
     FM271200 21013G23KT P6SM SCT060 BKN100
     FM271800 22015G25KT P6SM VCSH SCT050 OVC080
     FM280000 20009G19KT P6SM VCSH SCT030 OVC050 PROB30 2804/2806
      5SM -SN BR BKN025=

USA.gov is the U.S. government's official web portal to all federal, state and local government web resources and services.